Time;durP1;ratioP1;P1;durP2;ratioP2;P2;SDS_P1;SDS_P2;PMS_P1;PMS_P2;Temp;Humidity;BMP_temperature;BMP_pressure;BME280_temperature;BME280_humidity;BME280_pressure;Samples;Min_cycle;Max_cycle;Signal;HPM_P1;HPM_P2
2021/06/16 00:01:53;;;;;;;7.87;2.60;;;21.70;99.90;;;;;;5052477;28;20206;-73
2021/06/16 00:04:19;;;;;;;8.80;2.53;;;21.60;99.90;;;;;;5049124;28;20864;-73
2021/06/16 00:06:45;;;;;;;9.13;2.73;;;21.50;99.90;;;;;;5050261;28;20244;-73
2021/06/16 00:09:10;;;;;;;10.00;2.73;;;21.50;99.90;;;;;;5049239;28;20187;-73
2021/06/16 00:11:36;;;;;;;12.73;2.80;;;21.50;99.90;;;;;;5047325;28;20203;-73
2021/06/16 00:14:03;;;;;;;7.60;2.40;;;21.50;99.90;;;;;;5037826;28;20645;-73
2021/06/16 00:16:29;;;;;;;11.53;3.23;;;21.40;99.90;;;;;;5050070;28;20567;-73
2021/06/16 00:18:55;;;;;;;11.93;2.60;;;21.40;99.90;;;;;;5045666;28;20270;-73
2021/06/16 00:21:21;;;;;;;8.13;2.50;;;21.30;99.90;;;;;;5050416;28;20178;-75
2021/06/16 00:23:47;;;;;;;5.73;2.17;;;21.30;99.90;;;;;;5046800;28;20182;-73
2021/06/16 00:26:13;;;;;;;10.33;2.70;;;21.30;99.90;;;;;;5048863;28;20185;-73
2021/06/16 00:28:39;;;;;;;14.43;2.90;;;21.20;99.90;;;;;;5047267;28;20706;-73
2021/06/16 00:31:05;;;;;;;10.07;3.20;;;21.10;99.90;;;;;;5046403;28;20183;-73
2021/06/16 00:33:31;;;;;;;9.10;2.90;;;21.00;99.90;;;;;;5050357;28;20201;-73
2021/06/16 00:35:58;;;;;;;10.17;2.80;;;21.00;99.90;;;;;;5045647;28;20211;-73
2021/06/16 00:38:24;;;;;;;11.00;2.63;;;20.90;99.90;;;;;;5045487;28;20179;-73
2021/06/16 00:40:50;;;;;;;12.97;3.13;;;20.80;99.90;;;;;;5046528;28;20554;-73
2021/06/16 00:43:17;;;;;;;12.60;2.97;;;20.80;99.90;;;;;;5049571;28;20674;-73
2021/06/16 00:45:43;;;;;;;10.00;3.00;;;20.70;99.90;;;;;;5039789;28;20211;-73
2021/06/16 00:48:08;;;;;;;11.97;3.10;;;20.70;99.90;;;;;;5050121;28;20662;-73
2021/06/16 00:50:39;;;;;;;9.47;2.83;;;20.60;99.90;;;;;;5050571;28;20268;-73
2021/06/16 00:53:06;;;;;;;10.77;2.90;;;20.60;99.90;;;;;;5044684;28;20661;-73
2021/06/16 00:55:37;;;;;;;18.53;2.90;;;20.70;99.90;;;;;;5038566;28;20292;-73
2021/06/16 00:58:03;;;;;;;11.30;3.13;;;20.70;99.90;;;;;;5050011;28;20225;-73
2021/06/16 01:00:39;;;;;;;9.67;3.13;;;20.70;99.90;;;;;;5047144;28;20175;-73
2021/06/16 01:03:43;;;;;;;10.07;2.77;;;20.60;99.90;;;;;;5046581;28;20253;-73
2021/06/16 01:06:14;;;;;;;9.30;2.93;;;20.50;99.90;;;;;;5020542;28;20208;-74
2021/06/16 01:09:01;;;;;;;10.40;2.77;;;20.40;99.90;;;;;;5056211;28;20300;-73
2021/06/16 01:11:28;;;;;;;10.70;2.77;;;20.40;99.90;;;;;;5047494;28;20198;-74
2021/06/16 01:14:00;;;;;;;10.33;2.83;;;20.40;99.90;;;;;;5048909;28;20653;-71
2021/06/16 01:16:40;;;;;;;8.83;2.87;;;20.40;99.90;;;;;;5029477;28;20233;-72
2021/06/16 01:19:30;;;;;;;10.17;2.93;;;20.40;99.90;;;;;;5050565;28;20179;-72
2021/06/16 01:22:03;;;;;;;10.53;2.80;;;20.50;99.90;;;;;;5014486;28;20306;-72
2021/06/16 01:24:30;;;;;;;9.07;2.97;;;20.50;99.90;;;;;;5048305;28;20185;-74
2021/06/16 01:26:58;;;;;;;12.33;3.00;;;20.60;99.90;;;;;;5031657;28;20217;-73
2021/06/16 01:29:37;;;;;;;13.93;2.73;;;20.50;99.90;;;;;;5032196;28;20557;-73
2021/06/16 01:32:03;;;;;;;11.40;2.73;;;20.50;99.90;;;;;;5053025;28;20184;-74
2021/06/16 01:34:30;;;;;;;7.63;2.83;;;20.50;99.90;;;;;;5030447;28;20279;-73
2021/06/16 01:36:59;;;;;;;10.60;3.00;;;20.60;99.90;;;;;;5051573;28;20193;-73
2021/06/16 01:39:31;;;;;;;10.23;3.23;;;20.60;99.90;;;;;;5048955;28;20192;-72
2021/06/16 01:42:00;;;;;;;11.03;3.00;;;20.60;99.90;;;;;;5054399;28;20189;-72
2021/06/16 01:44:26;;;;;;;9.00;2.63;;;20.60;99.90;;;;;;5051197;28;20219;-73
2021/06/16 01:46:53;;;;;;;8.70;2.57;;;20.60;99.90;;;;;;5053102;28;20199;-72
2021/06/16 01:49:22;;;;;;;10.53;2.60;;;20.60;99.90;;;;;;5048648;28;20187;-72
2021/06/16 01:51:49;;;;;;;10.57;3.13;;;20.50;99.90;;;;;;5050093;28;20186;-73
2021/06/16 01:54:17;;;;;;;11.60;2.57;;;20.60;99.90;;;;;;5037365;28;20721;-72
2021/06/16 01:56:44;;;;;;;7.53;2.27;;;20.50;99.90;;;;;;5049556;28;20213;-72
2021/06/16 01:59:12;;;;;;;9.40;2.70;;;20.50;99.90;;;;;;5049279;28;20756;-72
2021/06/16 02:01:38;;;;;;;11.10;2.63;;;20.60;99.90;;;;;;5052368;28;20177;-72
2021/06/16 02:04:04;;;;;;;10.07;2.90;;;20.50;99.90;;;;;;5033746;28;20787;-72
2021/06/16 02:06:38;;;;;;;9.70;3.07;;;20.60;99.90;;;;;;5053498;28;20191;-72
2021/06/16 02:09:06;;;;;;;9.73;2.80;;;20.50;99.90;;;;;;5051894;28;20192;-72
2021/06/16 02:11:36;;;;;;;11.13;2.63;;;20.60;99.90;;;;;;5034546;28;20194;-72
2021/06/16 02:14:04;;;;;;;9.80;2.43;;;20.60;99.90;;;;;;5034735;28;20272;-72
2021/06/16 02:16:46;;;;;;;9.60;2.50;;;20.50;99.90;;;;;;5054383;28;20197;-72
2021/06/16 02:19:15;;;;;;;8.70;2.40;;;20.50;99.90;;;;;;5053119;28;20600;-72
2021/06/16 02:21:41;;;;;;;10.33;2.40;;;20.50;99.90;;;;;;5047991;28;20197;-72
2021/06/16 02:24:09;;;;;;;7.50;2.40;;;20.40;99.90;;;;;;5037536;28;20179;-73
2021/06/16 02:26:35;;;;;;;7.37;2.40;;;20.40;99.90;;;;;;5046701;28;20319;-72
2021/06/16 02:29:03;;;;;;;8.97;2.70;;;20.40;99.90;;;;;;5036243;28;20644;-73
2021/06/16 02:31:29;;;;;;;10.87;2.67;;;20.40;99.90;;;;;;5037244;28;20299;-72
2021/06/16 02:33:55;;;;;;;9.60;2.90;;;20.40;99.90;;;;;;5051208;28;20731;-73
2021/06/16 02:36:22;;;;;;;11.07;2.73;;;20.30;99.90;;;;;;5052242;28;20982;-73
2021/06/16 02:38:55;;;;;;;8.47;2.53;;;20.40;99.90;;;;;;5033867;28;20379;-73
2021/06/16 02:41:21;;;;;;;11.03;2.53;;;20.40;99.90;;;;;;5049354;28;20650;-73
2021/06/16 02:43:46;;;;;;;9.03;2.50;;;20.30;99.90;;;;;;5049824;28;20234;-73
2021/06/16 02:46:13;;;;;;;10.20;2.57;;;20.20;99.90;;;;;;5050870;28;20186;-73
2021/06/16 02:48:41;;;;;;;8.87;2.33;;;20.30;99.90;;;;;;5051483;28;20194;-73
2021/06/16 02:51:09;;;;;;;10.87;3.10;;;20.20;99.90;;;;;;5048662;28;20730;-73
2021/06/16 02:53:35;;;;;;;7.73;2.50;;;20.30;99.90;;;;;;5052143;28;20243;-73
2021/06/16 02:56:02;;;;;;;8.30;2.53;;;20.20;99.90;;;;;;5048478;28;20214;-73
2021/06/16 02:58:33;;;;;;;9.87;2.80;;;20.20;99.90;;;;;;5050760;28;20205;-73
2021/06/16 03:01:05;;;;;;;10.50;2.53;;;20.20;99.90;;;;;;5036139;28;22149;-73
2021/06/16 03:03:31;;;;;;;7.87;2.90;;;20.20;99.90;;;;;;5051009;28;20186;-73
2021/06/16 03:06:00;;;;;;;10.57;2.47;;;20.20;99.90;;;;;;5033129;28;20219;-73
2021/06/16 03:08:27;;;;;;;10.20;3.10;;;20.10;99.90;;;;;;5051111;28;20201;-73
2021/06/16 03:10:54;;;;;;;7.70;2.53;;;20.20;99.90;;;;;;5049917;28;20641;-73
2021/06/16 03:13:24;;;;;;;7.73;2.53;;;20.10;99.90;;;;;;5046583;28;20242;-73
2021/06/16 03:15:50;;;;;;;8.97;2.70;;;20.00;99.90;;;;;;5050649;28;20212;-73
2021/06/16 03:18:16;;;;;;;8.37;2.53;;;20.10;99.90;;;;;;5044891;28;20183;-73
2021/06/16 03:20:43;;;;;;;9.27;2.60;;;20.00;99.90;;;;;;5050507;28;20190;-73
2021/06/16 03:23:09;;;;;;;7.17;2.70;;;20.10;99.90;;;;;;5048762;28;20180;-73
2021/06/16 03:25:36;;;;;;;13.70;2.77;;;20.10;99.90;;;;;;5045362;28;20230;-73
2021/06/16 03:28:04;;;;;;;14.30;2.60;;;20.10;99.90;;;;;;5052056;28;20215;-73
2021/06/16 03:30:31;;;;;;;12.37;3.00;;;20.00;99.90;;;;;;5048665;28;20211;-74
2021/06/16 03:32:58;;;;;;;9.83;3.10;;;20.00;99.90;;;;;;5031995;28;20607;-73
2021/06/16 03:35:24;;;;;;;10.80;2.77;;;20.10;99.90;;;;;;5051837;28;20213;-73
2021/06/16 03:37:51;;;;;;;9.57;3.13;;;20.10;99.90;;;;;;5049125;28;20295;-73
2021/06/16 03:40:18;;;;;;;9.67;3.13;;;20.10;99.90;;;;;;5051968;28;20186;-73
2021/06/16 03:42:44;;;;;;;7.87;2.60;;;20.10;99.90;;;;;;5030644;28;20190;-73
2021/06/16 03:45:11;;;;;;;9.30;2.60;;;20.10;99.90;;;;;;5043422;28;20231;-73
2021/06/16 03:47:40;;;;;;;9.67;2.53;;;20.10;99.90;;;;;;5029437;28;20268;-73
2021/06/16 03:50:08;;;;;;;8.90;2.90;;;20.00;99.90;;;;;;5031503;28;20361;-73
2021/06/16 03:52:36;;;;;;;9.60;2.70;;;20.10;99.90;;;;;;5042593;28;20660;-73
2021/06/16 03:55:04;;;;;;;10.30;2.80;;;20.10;99.90;;;;;;5029231;28;20241;-73
2021/06/16 03:57:33;;;;;;;8.20;2.60;;;20.10;99.90;;;;;;5032604;28;20253;-73
2021/06/16 04:00:00;;;;;;;11.00;3.30;;;20.10;99.90;;;;;;5042872;28;20201;-73
2021/06/16 04:02:26;;;;;;;13.07;2.70;;;20.10;99.90;;;;;;5029367;28;20183;-73
2021/06/16 04:04:52;;;;;;;9.53;2.87;;;20.10;99.90;;;;;;5028457;28;20221;-73
2021/06/16 04:07:20;;;;;;;10.23;2.90;;;19.90;99.90;;;;;;5040386;28;20188;-73
2021/06/16 04:09:52;;;;;;;10.40;2.70;;;19.90;99.90;;;;;;5028836;28;20258;-73
2021/06/16 04:12:19;;;;;;;8.50;2.77;;;20.00;99.90;;;;;;5041985;28;20198;-73
2021/06/16 04:14:46;;;;;;;11.73;3.00;;;20.10;99.90;;;;;;5023235;28;20835;-73
2021/06/16 04:17:12;;;;;;;13.23;2.70;;;20.10;99.90;;;;;;5044345;28;20217;-73
2021/06/16 04:19:38;;;;;;;11.13;2.63;;;20.30;99.90;;;;;;5031594;28;20597;-73
2021/06/16 04:22:04;;;;;;;8.53;2.50;;;20.40;99.90;;;;;;5029032;28;20184;-73
2021/06/16 04:24:30;;;;;;;7.00;2.37;;;20.70;99.90;;;;;;5047985;28;20186;-73
2021/06/16 04:26:56;;;;;;;9.30;2.60;;;21.30;99.90;;;;;;5029808;28;20200;-73
2021/06/16 04:29:22;;;;;;;10.80;2.90;;;22.20;99.90;;;;;;5032507;28;20191;-73
2021/06/16 04:31:48;;;;;;;9.17;2.83;;;23.00;99.90;;;;;;5027417;28;20284;-73
2021/06/16 04:34:13;;;;;;;11.37;2.40;;;23.80;99.90;;;;;;5026744;28;20185;-73
2021/06/16 04:36:39;;;;;;;6.53;2.43;;;24.40;99.90;;;;;;5029600;28;20209;-73
2021/06/16 04:39:05;;;;;;;9.67;2.93;;;25.00;99.90;;;;;;5029842;28;20267;-73
2021/06/16 04:41:32;;;;;;;7.13;2.27;;;25.40;99.90;;;;;;5025837;28;20204;-73
2021/06/16 04:43:57;;;;;;;10.97;2.83;;;25.70;99.90;;;;;;5035863;28;20633;-73
2021/06/16 04:46:26;;;;;;;8.53;2.80;;;26.00;99.90;;;;;;5048665;28;20184;-73
2021/06/16 04:48:52;;;;;;;8.82;2.70;;;26.00;99.90;;;;;;5043312;28;20192;-72
2021/06/16 04:51:18;;;;;;;8.90;2.75;;;26.00;99.90;;;;;;5049939;28;20187;-73
2021/06/16 04:53:44;;;;;;;9.23;2.00;;;26.20;99.90;;;;;;5045533;28;20539;-73
2021/06/16 04:56:10;;;;;;;8.43;2.17;;;26.60;99.90;;;;;;5049950;28;20306;-73
2021/06/16 04:58:36;;;;;;;8.35;2.20;;;27.30;99.90;;;;;;5048540;28;20203;-73
2021/06/16 05:01:02;;;;;;;8.77;2.47;;;28.00;99.90;;;;;;5046771;28;20192;-73
2021/06/16 05:03:28;;;;;;;8.02;2.42;;;28.60;99.70;;;;;;5050912;28;20575;-73
2021/06/16 05:05:53;;;;;;;8.88;2.20;;;29.10;98.00;;;;;;5045050;28;20197;-73
2021/06/16 05:08:19;;;;;;;8.05;2.58;;;29.40;94.70;;;;;;5047014;28;20188;-73
2021/06/16 05:10:45;;;;;;;8.98;2.25;;;28.90;93.70;;;;;;5033270;28;20246;-73
2021/06/16 05:13:11;;;;;;;11.07;2.75;;;29.10;94.30;;;;;;5046139;28;20188;-73
2021/06/16 05:15:36;;;;;;;10.13;2.47;;;29.50;93.90;;;;;;5049434;28;20200;-73
2021/06/16 05:18:04;;;;;;;9.60;2.40;;;29.90;92.40;;;;;;5039399;28;20187;-73
2021/06/16 05:20:30;;;;;;;7.00;2.38;;;29.10;91.80;;;;;;5045714;28;20180;-74
2021/06/16 05:22:58;;;;;;;10.25;2.60;;;29.50;91.50;;;;;;5043479;28;20184;-73
2021/06/16 05:25:24;;;;;;;9.20;2.40;;;30.30;90.70;;;;;;5041113;28;20234;-74
2021/06/16 05:27:50;;;;;;;8.85;2.45;;;31.10;89.90;;;;;;5026350;28;20216;-73
2021/06/16 05:30:19;;;;;;;10.32;2.33;;;32.00;85.20;;;;;;5045082;28;20189;-74
2021/06/16 05:32:45;;;;;;;10.80;2.45;;;32.10;82.70;;;;;;5045463;28;20242;-73
2021/06/16 05:35:11;;;;;;;8.18;2.30;;;32.60;83.30;;;;;;5026134;28;20964;-74
2021/06/16 05:37:37;;;;;;;10.05;2.58;;;33.20;82.00;;;;;;5044679;28;20242;-73
2021/06/16 05:40:05;;;;;;;12.20;2.90;;;33.30;77.60;;;;;;5043301;28;20273;-75
2021/06/16 05:42:31;;;;;;;13.00;2.75;;;33.50;74.90;;;;;;5026244;28;20189;-74
2021/06/16 05:44:57;;;;;;;6.60;2.13;;;33.70;72.20;;;;;;5032707;28;20221;-75
2021/06/16 05:47:24;;;;;;;7.72;2.20;;;33.80;71.90;;;;;;5022145;28;20197;-74
2021/06/16 05:49:49;;;;;;;9.98;2.70;;;34.30;71.10;;;;;;5025294;28;20181;-74
2021/06/16 05:52:15;;;;;;;10.52;2.40;;;34.30;68.20;;;;;;5023842;28;20189;-74
2021/06/16 05:54:41;;;;;;;7.75;2.50;;;33.90;68.90;;;;;;5023276;28;21911;-74
2021/06/16 05:57:07;;;;;;;11.85;2.55;;;34.20;69.20;;;;;;5009156;28;20240;-74
2021/06/16 05:59:33;;;;;;;9.65;2.88;;;34.40;67.80;;;;;;5024551;28;20185;-75
2021/06/16 06:02:00;;;;;;;10.57;2.88;;;34.10;68.60;;;;;;5025809;28;20183;-75
2021/06/16 06:04:26;;;;;;;14.18;3.05;;;34.00;67.10;;;;;;5023833;28;20282;-74
2021/06/16 06:06:52;;;;;;;13.02;2.53;;;33.90;66.40;;;;;;4992311;28;20809;-75
2021/06/16 06:09:18;;;;;;;10.65;3.10;;;33.60;66.50;;;;;;5019331;28;20284;-75
2021/06/16 06:11:43;;;;;;;10.65;2.63;;;33.90;65.90;;;;;;5007861;28;20182;-75
2021/06/16 06:14:09;;;;;;;8.73;2.90;;;34.00;66.80;;;;;;5024860;28;20200;-75
2021/06/16 06:16:35;;;;;;;10.65;2.95;;;33.90;66.10;;;;;;5027565;28;20287;-74
2021/06/16 06:19:01;;;;;;;11.00;2.90;;;34.40;65.80;;;;;;5024121;28;20621;-75
2021/06/16 06:21:31;;;;;;;8.48;2.58;;;34.90;64.90;;;;;;5025822;28;20181;-75
2021/06/16 06:23:59;;;;;;;8.38;2.60;;;35.00;63.50;;;;;;5027641;28;20240;-74
2021/06/16 06:26:25;;;;;;;9.50;2.65;;;34.00;64.00;;;;;;5027485;28;20239;-74
2021/06/16 06:28:51;;;;;;;9.40;2.67;;;33.70;65.90;;;;;;5010466;28;20185;-74
2021/06/16 06:31:17;;;;;;;9.88;2.92;;;33.30;66.50;;;;;;5023993;28;20195;-75
2021/06/16 06:33:42;;;;;;;11.55;3.08;;;33.90;67.30;;;;;;5031929;28;20275;-75
2021/06/16 06:36:08;;;;;;;8.60;2.83;;;34.20;66.00;;;;;;5026902;28;20794;-75
2021/06/16 06:38:34;;;;;;;12.15;2.88;;;34.60;64.30;;;;;;5031917;28;20189;-75
2021/06/16 06:41:00;;;;;;;9.20;2.58;;;35.00;63.80;;;;;;5033510;28;20767;-75
2021/06/16 06:43:25;;;;;;;12.50;2.90;;;35.50;63.90;;;;;;5032387;28;20624;-75
2021/06/16 06:45:51;;;;;;;9.82;2.90;;;35.60;62.60;;;;;;5053589;28;20180;-75
2021/06/16 06:48:17;;;;;;;10.93;2.90;;;35.50;62.30;;;;;;5047865;28;20189;-75
2021/06/16 06:50:43;;;;;;;10.27;3.10;;;35.40;62.50;;;;;;5034890;28;20223;-74
2021/06/16 06:53:08;;;;;;;11.57;2.78;;;35.20;62.90;;;;;;5049997;28;20211;-74
2021/06/16 06:55:35;;;;;;;7.90;2.83;;;35.10;62.50;;;;;;5051763;28;20220;-75
2021/06/16 06:58:01;;;;;;;9.13;2.80;;;35.40;63.60;;;;;;5048631;28;20668;-75
2021/06/16 07:00:27;;;;;;;10.05;2.60;;;35.90;63.10;;;;;;5049887;28;20180;-75
2021/06/16 07:02:55;;;;;;;11.27;3.53;;;35.90;61.30;;;;;;5054512;28;20184;-75
2021/06/16 07:05:21;;;;;;;13.40;3.55;;;35.20;62.50;;;;;;5046214;28;20193;-75
2021/06/16 07:07:47;;;;;;;9.77;2.67;;;35.00;64.00;;;;;;5050120;28;20303;-75
2021/06/16 07:10:13;;;;;;;14.90;3.15;;;35.30;63.10;;;;;;5050188;28;20272;-75
2021/06/16 07:12:40;;;;;;;8.35;2.78;;;35.80;63.20;;;;;;5032745;28;20525;-75
2021/06/16 07:15:06;;;;;;;8.40;3.65;;;36.40;62.50;;;;;;5048524;28;20187;-75
2021/06/16 07:17:33;;;;;;;9.68;3.40;;;36.00;60.50;;;;;;5047867;28;20234;-75
2021/06/16 07:19:59;;;;;;;10.68;3.40;;;35.70;61.50;;;;;;5049344;28;20172;-75
2021/06/16 07:22:25;;;;;;;11.32;3.25;;;36.10;61.60;;;;;;5048507;28;20203;-75
2021/06/16 07:24:51;;;;;;;15.60;3.80;;;36.40;61.10;;;;;;5043942;28;20184;-75
2021/06/16 07:27:17;;;;;;;10.10;3.13;;;37.40;60.00;;;;;;5016863;28;20196;-75
2021/06/16 07:29:42;;;;;;;11.57;3.40;;;38.10;58.40;;;;;;5051354;28;20187;-75
2021/06/16 07:32:09;;;;;;;13.93;3.92;;;36.70;58.80;;;;;;5058412;28;20184;-75
2021/06/16 07:34:34;;;;;;;10.00;3.70;;;35.80;60.00;;;;;;5050318;28;20195;-75
2021/06/16 07:37:00;;;;;;;11.93;3.50;;;35.90;60.60;;;;;;5050385;28;20216;-75
2021/06/16 07:39:26;;;;;;;10.48;3.35;;;36.60;60.30;;;;;;5050188;28;20673;-75
2021/06/16 07:41:52;;;;;;;10.95;3.13;;;37.90;59.00;;;;;;5033949;28;20169;-75
2021/06/16 07:44:18;;;;;;;8.18;3.00;;;38.60;58.50;;;;;;5030582;28;20711;-75
2021/06/16 07:46:43;;;;;;;9.80;3.90;;;39.90;56.50;;;;;;5052449;28;20187;-75
2021/06/16 07:49:09;;;;;;;11.73;3.20;;;40.30;54.80;;;;;;5051569;28;20172;-75
2021/06/16 07:51:35;;;;;;;12.70;4.00;;;40.80;54.60;;;;;;5042360;28;20731;-75
2021/06/16 07:54:01;;;;;;;9.57;3.47;;;40.00;54.80;;;;;;5051697;28;20572;-75
2021/06/16 07:56:26;;;;;;;9.38;3.13;;;39.10;55.40;;;;;;5048089;28;20231;-75
2021/06/16 07:58:52;;;;;;;12.38;3.75;;;39.50;56.40;;;;;;5052038;28;20177;-75
2021/06/16 08:01:19;;;;;;;8.70;3.70;;;39.20;55.20;;;;;;5048319;28;20196;-75
2021/06/16 08:03:45;;;;;;;8.50;3.03;;;39.90;55.50;;;;;;5035695;28;20181;-75
2021/06/16 08:06:11;;;;;;;8.82;3.38;;;40.40;54.20;;;;;;5053645;28;20548;-75
2021/06/16 08:08:37;;;;;;;12.48;3.58;;;41.30;54.00;;;;;;5050841;28;20249;-75
2021/06/16 08:11:03;;;;;;;8.63;3.30;;;41.90;53.60;;;;;;5049403;28;20795;-75
2021/06/16 08:13:32;;;;;;;11.05;3.50;;;43.00;52.60;;;;;;5049326;28;20188;-75
2021/06/16 08:15:58;;;;;;;9.27;3.45;;;44.10;51.10;;;;;;5051798;28;20613;-75
2021/06/16 08:18:25;;;;;;;9.85;4.07;;;44.80;48.80;;;;;;5030378;28;20193;-76
2021/06/16 08:20:51;;;;;;;8.95;3.90;;;45.80;47.70;;;;;;5051146;28;20184;-76
2021/06/16 08:23:17;;;;;;;9.75;4.05;;;45.30;46.40;;;;;;5048057;28;20195;-75
2021/06/16 08:25:43;;;;;;;10.15;4.20;;;44.90;46.00;;;;;;5047585;28;20181;-77
2021/06/16 08:28:09;;;;;;;8.80;4.15;;;43.90;46.70;;;;;;5033944;28;20188;-75
2021/06/16 08:30:35;;;;;;;7.78;3.58;;;42.60;47.20;;;;;;5049250;28;20209;-76
2021/06/16 08:33:01;;;;;;;7.72;3.42;;;42.20;49.20;;;;;;5050543;28;20184;-75
2021/06/16 08:35:26;;;;;;;12.38;4.03;;;41.70;50.10;;;;;;5047674;28;20528;-75
2021/06/16 08:37:52;;;;;;;8.68;3.72;;;42.40;49.20;;;;;;5051553;28;20194;-76
2021/06/16 08:40:18;;;;;;;9.95;3.63;;;43.00;48.10;;;;;;5048448;28;20234;-75
2021/06/16 08:42:49;;;;;;;11.95;4.20;;;44.30;48.30;;;;;;5049888;28;20184;-75
2021/06/16 08:45:17;;;;;;;9.18;4.05;;;44.60;46.60;;;;;;5030312;28;20225;-76
2021/06/16 08:47:46;;;;;;;10.10;4.00;;;44.50;45.80;;;;;;5033874;28;20188;-75
2021/06/16 08:50:13;;;;;;;8.10;3.70;;;45.00;46.00;;;;;;5036697;28;20513;-75
2021/06/16 08:52:40;;;;;;;7.18;3.97;;;45.80;45.20;;;;;;5046100;28;20212;-75
2021/06/16 08:55:11;;;;;;;10.35;3.70;;;46.30;45.00;;;;;;5049725;28;20180;-75
2021/06/16 08:57:39;;;;;;;8.63;3.92;;;46.50;44.60;;;;;;5045801;28;20207;-75
2021/06/16 09:00:07;;;;;;;10.50;4.15;;;46.30;43.50;;;;;;5051058;28;20188;-75
2021/06/16 09:02:32;;;;;;;9.77;3.85;;;44.30;45.10;;;;;;5041149;28;20176;-75
2021/06/16 09:04:58;;;;;;;9.07;3.88;;;44.80;46.00;;;;;;5047087;28;20181;-75
2021/06/16 09:07:30;;;;;;;9.40;3.92;;;45.80;44.50;;;;;;5051348;28;20249;-76
2021/06/16 09:10:09;;;;;;;15.10;4.18;;;46.30;44.60;;;;;;5049060;28;20211;-76
2021/06/16 09:12:42;;;;;;;7.30;3.92;;;47.10;43.20;;;;;;5050420;28;20218;-76
2021/06/16 09:15:13;;;;;;;10.32;3.80;;;47.50;42.90;;;;;;5046182;28;20188;-75
2021/06/16 09:17:39;;;;;;;8.43;3.90;;;47.70;43.30;;;;;;5050040;28;20231;-76
2021/06/16 09:20:07;;;;;;;8.55;3.95;;;47.20;42.20;;;;;;5048081;28;20176;-76
2021/06/16 09:22:38;;;;;;;7.60;3.70;;;47.00;43.90;;;;;;5015094;28;20183;-76
2021/06/16 09:25:07;;;;;;;9.48;3.60;;;47.60;44.00;;;;;;5051065;28;20275;-76
2021/06/16 09:27:45;;;;;;;10.68;4.63;;;47.80;43.10;;;;;;5046788;28;20189;-76
2021/06/16 09:30:23;;;;;;;8.15;4.00;;;46.50;43.60;;;;;;5051249;28;20211;-75
2021/06/16 09:32:53;;;;;;;7.70;3.95;;;46.70;42.80;;;;;;5045536;28;20200;-76
2021/06/16 09:35:22;;;;;;;8.73;4.05;;;46.50;43.20;;;;;;5044466;28;20263;-76
2021/06/16 09:37:48;;;;;;;9.23;4.22;;;46.20;42.60;;;;;;5015933;28;20246;-76
2021/06/16 09:40:23;;;;;;;9.70;4.32;;;45.70;42.90;;;;;;5048217;28;20210;-76
2021/06/16 09:42:59;;;;;;;9.70;4.55;;;45.40;44.10;;;;;;5029105;28;20199;-75
2021/06/16 09:45:25;;;;;;;9.00;4.47;;;44.90;44.40;;;;;;5043364;28;20278;-76
2021/06/16 09:47:51;;;;;;;10.00;4.50;;;45.30;43.40;;;;;;5050467;28;20280;-76
2021/06/16 09:50:22;;;;;;;8.55;4.25;;;44.60;44.10;;;;;;5046480;28;20298;-76
2021/06/16 09:52:48;;;;;;;11.05;4.40;;;44.20;45.30;;;;;;5034174;28;20176;-76
2021/06/16 09:55:20;;;;;;;11.73;4.53;;;43.90;46.30;;;;;;5052723;28;20528;-76
2021/06/16 09:58:08;;;;;;;10.52;5.07;;;44.00;45.20;;;;;;5046444;28;20211;-76
2021/06/16 10:00:35;;;;;;;10.40;4.68;;;43.00;45.90;;;;;;5034840;28;20191;-76
2021/06/16 10:03:08;;;;;;;6.95;3.83;;;43.70;46.50;;;;;;5048453;28;20246;-76
2021/06/16 10:05:35;;;;;;;10.82;4.60;;;44.50;45.50;;;;;;5050435;28;20182;-75
2021/06/16 10:08:01;;;;;;;8.82;4.60;;;44.80;45.50;;;;;;5048579;28;20176;-75
2021/06/16 10:10:27;;;;;;;12.93;4.82;;;45.50;44.50;;;;;;5037906;28;20647;-75
2021/06/16 10:12:53;;;;;;;10.32;4.80;;;44.80;44.70;;;;;;5050846;28;20177;-76
2021/06/16 10:15:20;;;;;;;10.95;5.03;;;45.40;44.80;;;;;;5050404;28;20278;-75
2021/06/16 10:17:47;;;;;;;12.43;5.60;;;46.10;43.70;;;;;;5035037;28;20188;-76
2021/06/16 10:20:14;;;;;;;8.63;4.88;;;46.70;43.20;;;;;;5033348;28;20189;-76
2021/06/16 10:22:41;;;;;;;11.27;5.10;;;47.30;42.30;;;;;;5051234;28;20704;-76
2021/06/16 10:25:07;;;;;;;12.55;4.65;;;46.20;42.30;;;;;;5048233;28;20195;-76
2021/06/16 10:27:37;;;;;;;8.93;4.30;;;45.70;44.70;;;;;;5053060;28;20188;-76
2021/06/16 10:30:15;;;;;;;9.10;4.03;;;46.40;43.80;;;;;;5033713;28;20322;-77
2021/06/16 10:32:46;;;;;;;6.97;4.38;;;46.70;42.50;;;;;;5049919;28;20196;-76
2021/06/16 10:35:14;;;;;;;8.32;4.35;;;47.20;42.80;;;;;;5049940;28;20184;-76
2021/06/16 10:37:44;;;;;;;8.15;4.53;;;46.50;43.70;;;;;;5031324;28;20548;-76
2021/06/16 10:40:15;;;;;;;7.65;4.28;;;46.30;42.40;;;;;;5050944;28;20362;-76
2021/06/16 10:43:02;;;;;;;7.63;4.20;;;46.60;42.40;;;;;;5047622;28;20234;-76
2021/06/16 10:45:37;;;;;;;9.55;4.55;;;46.70;41.80;;;;;;5036497;28;20724;-76
2021/06/16 10:48:07;;;;;;;10.27;4.93;;;47.20;42.30;;;;;;5050516;28;20195;-76
2021/06/16 10:50:48;;;;;;;10.30;4.93;;;47.20;42.20;;;;;;5034817;28;20215;-75
2021/06/16 10:53:16;;;;;;;10.00;4.63;;;47.30;41.70;;;;;;5049558;28;20176;-75
2021/06/16 10:55:54;;;;;;;10.07;5.05;;;47.00;42.70;;;;;;5051041;28;20195;-75
2021/06/16 10:58:30;;;;;;;11.45;5.38;;;45.50;41.80;;;;;;5046050;28;20271;-77
2021/06/16 11:01:11;;;;;;;9.48;5.00;;;45.30;42.80;;;;;;5030385;28;20194;-76
2021/06/16 11:03:46;;;;;;;13.60;5.00;;;45.60;44.10;;;;;;5057428;28;20160;-76
2021/06/16 11:06:34;;;;;;;9.18;4.30;;;45.70;42.80;;;;;;5047118;28;20189;-77
2021/06/16 11:09:02;;;;;;;6.80;4.10;;;45.40;41.40;;;;;;5052746;28;20265;-76
2021/06/16 11:11:49;;;;;;;11.63;4.63;;;45.50;40.80;;;;;;5044943;28;20176;-75
2021/06/16 11:14:33;;;;;;;8.25;3.88;;;45.90;41.00;;;;;;5047813;28;20195;-75
2021/06/16 11:16:59;;;;;;;8.18;4.20;;;45.50;41.60;;;;;;5052961;28;20208;-77
2021/06/16 11:19:39;;;;;;;10.45;4.38;;;45.40;43.00;;;;;;5032639;28;20173;-75
2021/06/16 11:22:13;;;;;;;11.02;4.55;;;44.70;43.90;;;;;;5052187;28;20184;-76
2021/06/16 11:25:04;;;;;;;12.40;4.47;;;44.90;42.90;;;;;;5051422;28;20168;-75
2021/06/16 11:28:08;;;;;;;8.35;3.85;;;45.60;42.10;;;;;;5044252;28;20200;-76
2021/06/16 11:30:56;;;;;;;8.23;3.45;;;45.90;41.10;;;;;;5026876;28;20263;-76
2021/06/16 11:33:22;;;;;;;9.20;3.20;;;45.00;40.70;;;;;;5051109;28;20188;-75
2021/06/16 11:35:59;;;;;;;5.80;3.22;;;44.20;41.60;;;;;;5049407;28;20545;-76
2021/06/16 11:38:24;;;;;;;6.20;3.45;;;45.00;42.90;;;;;;5040846;28;20180;-75
2021/06/16 11:40:58;;;;;;;8.98;3.63;;;45.00;41.10;;;;;;5049185;28;20184;-76
2021/06/16 11:43:33;;;;;;;7.15;3.50;;;45.60;40.60;;;;;;5040358;28;20337;-76
2021/06/16 11:46:02;;;;;;;8.07;4.00;;;45.90;42.50;;;;;;5033295;28;20203;-75
2021/06/16 11:48:27;;;;;;;8.90;3.92;;;46.10;40.50;;;;;;5046758;28;20210;-75
2021/06/16 11:50:53;;;;;;;10.90;3.70;;;46.00;41.80;;;;;;5027625;28;20619;-77
2021/06/16 11:53:30;;;;;;;10.32;3.88;;;45.50;40.80;;;;;;5034162;28;20753;-75
2021/06/16 11:56:00;;;;;;;9.98;3.60;;;45.10;41.20;;;;;;5047432;28;20261;-75
2021/06/16 11:58:32;;;;;;;11.05;3.60;;;45.30;41.30;;;;;;5047604;28;20547;-75
2021/06/16 12:01:16;;;;;;;8.15;3.65;;;44.30;41.40;;;;;;5050020;28;20184;-76
2021/06/16 12:03:56;;;;;;;9.23;3.70;;;43.90;42.00;;;;;;5046579;28;20279;-75
2021/06/16 12:06:22;;;;;;;9.65;3.60;;;42.00;42.60;;;;;;5042757;28;20172;-75
2021/06/16 12:08:58;;;;;;;9.27;3.72;;;41.20;45.10;;;;;;5029083;28;20279;-75
2021/06/16 12:11:31;;;;;;;7.65;3.80;;;40.30;44.90;;;;;;5047484;28;20190;-75
2021/06/16 12:14:11;;;;;;;11.20;4.63;;;38.30;47.20;;;;;;5026231;28;20199;-75
2021/06/16 12:16:42;;;;;;;7.95;3.95;;;37.50;47.20;;;;;;5047882;28;20192;-74
2021/06/16 12:19:19;;;;;;;9.52;4.10;;;36.60;47.90;;;;;;5051868;28;20188;-75
2021/06/16 12:21:55;;;;;;;10.80;3.88;;;36.30;48.40;;;;;;5049559;28;20639;-75
2021/06/16 12:24:41;;;;;;;10.30;3.78;;;35.60;49.40;;;;;;5034308;28;20292;-75
2021/06/16 12:27:21;;;;;;;13.10;4.35;;;35.40;50.40;;;;;;5032186;28;20279;-75
2021/06/16 12:29:50;;;;;;;11.93;5.60;;;35.10;51.50;;;;;;5051017;28;20172;-76
2021/06/16 12:32:40;;;;;;;10.27;5.20;;;35.10;52.50;;;;;;5035811;28;20189;-75
2021/06/16 12:35:25;;;;;;;10.77;5.20;;;34.60;53.60;;;;;;5034625;28;20204;-75
2021/06/16 12:37:53;;;;;;;9.60;5.55;;;33.70;53.80;;;;;;5030932;28;20627;-75
2021/06/16 12:40:31;;;;;;;16.60;11.38;;;33.20;56.60;;;;;;5030730;28;20187;-77
2021/06/16 12:42:57;;;;;;;10.65;5.03;;;33.10;56.70;;;;;;5041187;28;20227;-75
2021/06/16 12:45:33;;;;;;;12.15;4.28;;;33.00;56.70;;;;;;5048645;28;20192;-75
2021/06/16 12:48:26;;;;;;;10.32;4.38;;;33.20;57.30;;;;;;5043080;28;20207;-75
2021/06/16 12:51:03;;;;;;;8.85;4.53;;;33.40;56.70;;;;;;5010190;28;20201;-77
2021/06/16 12:53:35;;;;;;;9.50;4.20;;;33.20;55.50;;;;;;5051703;28;20180;-77